sensor_id;sensor_type;location;lat;lon;timestamp;P1;durP1;ratioP1;P2;durP2;ratioP2
8177;SDS011;4130;48.740;9.132;2022-11-20T00:00:18;1.83;;;1.73;;
8177;SDS011;4130;48.740;9.132;2022-11-20T00:02:44;1.80;;;1.70;;
8177;SDS011;4130;48.740;9.132;2022-11-20T00:05:13;3.47;;;2.30;;
8177;SDS011;4130;48.740;9.132;2022-11-20T00:07:39;3.67;;;2.33;;
8177;SDS011;4130;48.740;9.132;2022-11-20T00:10:06;1.97;;;1.77;;
8177;SDS011;4130;48.740;9.132;2022-11-20T00:12:33;2.20;;;1.93;;
8177;SDS011;4130;48.740;9.132;2022-11-20T00:15:01;2.27;;;2.00;;
8177;SDS011;4130;48.740;9.132;2022-11-20T00:17:27;9.73;;;2.10;;
8177;SDS011;4130;48.740;9.132;2022-11-20T00:19:54;1.93;;;1.77;;
8177;SDS011;4130;48.740;9.132;2022-11-20T00:22:22;2.00;;;1.80;;
8177;SDS011;4130;48.740;9.132;2022-11-20T00:24:49;2.73;;;2.53;;
8177;SDS011;4130;48.740;9.132;2022-11-20T00:27:16;2.17;;;2.00;;
8177;SDS011;4130;48.740;9.132;2022-11-20T00:29:42;2.10;;;1.90;;
8177;SDS011;4130;48.740;9.132;2022-11-20T00:32:09;2.10;;;1.90;;
8177;SDS011;4130;48.740;9.132;2022-11-20T00:34:36;2.27;;;1.83;;
8177;SDS011;4130;48.740;9.132;2022-11-20T00:37:03;3.00;;;2.20;;
8177;SDS011;4130;48.740;9.132;2022-11-20T00:39:33;2.30;;;2.10;;
8177;SDS011;4130;48.740;9.132;2022-11-20T00:41:59;3.30;;;2.20;;
8177;SDS011;4130;48.740;9.132;2022-11-20T00:44:26;2.00;;;1.80;;
8177;SDS011;4130;48.740;9.132;2022-11-20T00:46:53;1.70;;;1.50;;
8177;SDS011;4130;48.740;9.132;2022-11-20T00:49:20;2.80;;;1.80;;
8177;SDS011;4130;48.740;9.132;2022-11-20T00:51:47;2.10;;;1.80;;
8177;SDS011;4130;48.740;9.132;2022-11-20T00:54:13;2.00;;;1.80;;
8177;SDS011;4130;48.740;9.132;2022-11-20T00:56:41;1.80;;;1.70;;
8177;SDS011;4130;48.740;9.132;2022-11-20T00:59:08;2.00;;;1.80;;
8177;SDS011;4130;48.740;9.132;2022-11-20T01:01:37;2.27;;;1.90;;
8177;SDS011;4130;48.740;9.132;2022-11-20T01:04:04;1.73;;;1.63;;
8177;SDS011;4130;48.740;9.132;2022-11-20T01:06:32;2.03;;;1.90;;
8177;SDS011;4130;48.740;9.132;2022-11-20T01:09:01;1.80;;;1.70;;
8177;SDS011;4130;48.740;9.132;2022-11-20T01:11:30;2.27;;;1.87;;
8177;SDS011;4130;48.740;9.132;2022-11-20T01:13:59;2.10;;;1.90;;
8177;SDS011;4130;48.740;9.132;2022-11-20T01:16:28;1.73;;;1.63;;
8177;SDS011;4130;48.740;9.132;2022-11-20T01:18:57;2.00;;;1.80;;
8177;SDS011;4130;48.740;9.132;2022-11-20T01:21:25;1.90;;;1.80;;
8177;SDS011;4130;48.740;9.132;2022-11-20T01:23:53;2.10;;;1.90;;
8177;SDS011;4130;48.740;9.132;2022-11-20T01:26:22;1.90;;;1.70;;
8177;SDS011;4130;48.740;9.132;2022-11-20T01:28:49;2.57;;;1.70;;
8177;SDS011;4130;48.740;9.132;2022-11-20T01:31:19;1.63;;;1.53;;
8177;SDS011;4130;48.740;9.132;2022-11-20T01:33:48;2.10;;;1.90;;
8177;SDS011;4130;48.740;9.132;2022-11-20T01:36:17;1.93;;;1.53;;
8177;SDS011;4130;48.740;9.132;2022-11-20T01:38:45;1.53;;;1.43;;
8177;SDS011;4130;48.740;9.132;2022-11-20T01:41:13;1.60;;;1.50;;
8177;SDS011;4130;48.740;9.132;2022-11-20T01:44:02;1.60;;;1.50;;
8177;SDS011;4130;48.740;9.132;2022-11-20T01:46:29;3.97;;;1.70;;
8177;SDS011;4130;48.740;9.132;2022-11-20T01:48:57;1.60;;;1.50;;
8177;SDS011;4130;48.740;9.132;2022-11-20T01:51:29;2.10;;;1.40;;
8177;SDS011;4130;48.740;9.132;2022-11-20T01:53:59;2.17;;;1.70;;
8177;SDS011;4130;48.740;9.132;2022-11-20T01:56:29;1.57;;;1.40;;
8177;SDS011;4130;48.740;9.132;2022-11-20T01:59:01;1.50;;;1.40;;
8177;SDS011;4130;48.740;9.132;2022-11-20T02:01:31;2.10;;;1.83;;
8177;SDS011;4130;48.740;9.132;2022-11-20T02:03:58;1.60;;;1.50;;
8177;SDS011;4130;48.740;9.132;2022-11-20T02:06:27;1.53;;;1.43;;
8177;SDS011;4130;48.740;9.132;2022-11-20T02:08:57;2.23;;;1.60;;
8177;SDS011;4130;48.740;9.132;2022-11-20T02:11:24;1.77;;;1.67;;
8177;SDS011;4130;48.740;9.132;2022-11-20T02:13:50;1.57;;;1.47;;
8177;SDS011;4130;48.740;9.132;2022-11-20T02:16:18;1.60;;;1.50;;
8177;SDS011;4130;48.740;9.132;2022-11-20T02:18:49;1.63;;;1.53;;
8177;SDS011;4130;48.740;9.132;2022-11-20T02:21:23;1.77;;;1.50;;
8177;SDS011;4130;48.740;9.132;2022-11-20T02:23:58;1.63;;;1.53;;
8177;SDS011;4130;48.740;9.132;2022-11-20T02:26:28;1.50;;;1.40;;
8177;SDS011;4130;48.740;9.132;2022-11-20T02:28:56;1.50;;;1.40;;
8177;SDS011;4130;48.740;9.132;2022-11-20T02:31:24;1.40;;;1.30;;
8177;SDS011;4130;48.740;9.132;2022-11-20T02:33:54;1.50;;;1.40;;
8177;SDS011;4130;48.740;9.132;2022-11-20T02:36:21;3.30;;;1.60;;
8177;SDS011;4130;48.740;9.132;2022-11-20T02:38:49;1.90;;;1.77;;
8177;SDS011;4130;48.740;9.132;2022-11-20T02:41:17;1.80;;;1.50;;
8177;SDS011;4130;48.740;9.132;2022-11-20T02:43:45;2.20;;;1.43;;
8177;SDS011;4130;48.740;9.132;2022-11-20T02:46:12;1.57;;;1.30;;
8177;SDS011;4130;48.740;9.132;2022-11-20T02:48:39;1.67;;;1.57;;
8177;SDS011;4130;48.740;9.132;2022-11-20T02:51:05;1.33;;;1.23;;
8177;SDS011;4130;48.740;9.132;2022-11-20T02:53:32;1.43;;;1.33;;
8177;SDS011;4130;48.740;9.132;2022-11-20T02:55:59;1.50;;;1.40;;
8177;SDS011;4130;48.740;9.132;2022-11-20T02:58:27;1.90;;;1.60;;
8177;SDS011;4130;48.740;9.132;2022-11-20T03:00:54;1.70;;;1.60;;
8177;SDS011;4130;48.740;9.132;2022-11-20T03:03:21;1.67;;;1.57;;
8177;SDS011;4130;48.740;9.132;2022-11-20T03:05:47;2.00;;;1.80;;
8177;SDS011;4130;48.740;9.132;2022-11-20T03:08:14;2.60;;;2.00;;
8177;SDS011;4130;48.740;9.132;2022-11-20T03:10:41;3.13;;;2.03;;
8177;SDS011;4130;48.740;9.132;2022-11-20T03:13:08;2.67;;;1.90;;
8177;SDS011;4130;48.740;9.132;2022-11-20T03:15:36;3.07;;;1.90;;
8177;SDS011;4130;48.740;9.132;2022-11-20T03:18:03;2.33;;;1.90;;
8177;SDS011;4130;48.740;9.132;2022-11-20T03:20:31;2.40;;;2.20;;
8177;SDS011;4130;48.740;9.132;2022-11-20T03:22:59;3.10;;;2.07;;
8177;SDS011;4130;48.740;9.132;2022-11-20T03:25:25;2.50;;;2.07;;
8177;SDS011;4130;48.740;9.132;2022-11-20T03:27:53;1.90;;;1.80;;
8177;SDS011;4130;48.740;9.132;2022-11-20T03:30:20;2.00;;;1.90;;
8177;SDS011;4130;48.740;9.132;2022-11-20T03:32:48;2.10;;;1.90;;
8177;SDS011;4130;48.740;9.132;2022-11-20T03:35:18;2.57;;;2.07;;
8177;SDS011;4130;48.740;9.132;2022-11-20T03:37:45;2.00;;;1.90;;
8177;SDS011;4130;48.740;9.132;2022-11-20T03:40:12;1.70;;;1.60;;
8177;SDS011;4130;48.740;9.132;2022-11-20T03:42:39;2.20;;;2.00;;
8177;SDS011;4130;48.740;9.132;2022-11-20T03:45:13;1.80;;;1.70;;
8177;SDS011;4130;48.740;9.132;2022-11-20T03:47:40;2.20;;;2.00;;
8177;SDS011;4130;48.740;9.132;2022-11-20T03:50:09;1.90;;;1.80;;
8177;SDS011;4130;48.740;9.132;2022-11-20T03:52:37;1.80;;;1.70;;
8177;SDS011;4130;48.740;9.132;2022-11-20T03:55:04;2.00;;;1.90;;
8177;SDS011;4130;48.740;9.132;2022-11-20T03:57:31;2.37;;;2.10;;
8177;SDS011;4130;48.740;9.132;2022-11-20T03:59:58;2.03;;;1.70;;
8177;SDS011;4130;48.740;9.132;2022-11-20T04:02:25;2.20;;;1.60;;
8177;SDS011;4130;48.740;9.132;2022-11-20T04:04:51;1.90;;;1.80;;
8177;SDS011;4130;48.740;9.132;2022-11-20T04:07:19;2.10;;;1.90;;
8177;SDS011;4130;48.740;9.132;2022-11-20T04:09:46;2.20;;;1.77;;
8177;SDS011;4130;48.740;9.132;2022-11-20T04:12:13;1.90;;;1.80;;
8177;SDS011;4130;48.740;9.132;2022-11-20T04:14:40;1.83;;;1.53;;
8177;SDS011;4130;48.740;9.132;2022-11-20T04:17:06;2.00;;;1.80;;
8177;SDS011;4130;48.740;9.132;2022-11-20T04:19:33;3.67;;;1.80;;
8177;SDS011;4130;48.740;9.132;2022-11-20T04:22:00;2.10;;;1.90;;
8177;SDS011;4130;48.740;9.132;2022-11-20T04:24:29;2.23;;;2.00;;
8177;SDS011;4130;48.740;9.132;2022-11-20T04:26:56;1.90;;;1.80;;
8177;SDS011;4130;48.740;9.132;2022-11-20T04:29:22;2.13;;;1.70;;
8177;SDS011;4130;48.740;9.132;2022-11-20T04:31:49;2.63;;;1.90;;
8177;SDS011;4130;48.740;9.132;2022-11-20T04:34:16;2.40;;;2.20;;
8177;SDS011;4130;48.740;9.132;2022-11-20T04:36:42;3.83;;;1.83;;
8177;SDS011;4130;48.740;9.132;2022-11-20T04:39:13;2.50;;;2.03;;
8177;SDS011;4130;48.740;9.132;2022-11-20T04:41:42;2.37;;;1.97;;
8177;SDS011;4130;48.740;9.132;2022-11-20T04:44:09;2.27;;;1.70;;
8177;SDS011;4130;48.740;9.132;2022-11-20T04:46:38;2.20;;;2.00;;
8177;SDS011;4130;48.740;9.132;2022-11-20T04:49:08;2.63;;;2.00;;
8177;SDS011;4130;48.740;9.132;2022-11-20T04:51:36;2.20;;;2.00;;
8177;SDS011;4130;48.740;9.132;2022-11-20T04:54:04;1.97;;;1.87;;
8177;SDS011;4130;48.740;9.132;2022-11-20T04:56:31;1.90;;;1.80;;
8177;SDS011;4130;48.740;9.132;2022-11-20T04:59:01;3.13;;;2.30;;
8177;SDS011;4130;48.740;9.132;2022-11-20T05:01:28;2.00;;;1.90;;
8177;SDS011;4130;48.740;9.132;2022-11-20T05:03:55;3.10;;;2.00;;
8177;SDS011;4130;48.740;9.132;2022-11-20T05:06:22;1.80;;;1.70;;
8177;SDS011;4130;48.740;9.132;2022-11-20T05:08:49;2.00;;;1.90;;
8177;SDS011;4130;48.740;9.132;2022-11-20T05:11:17;2.00;;;1.80;;
8177;SDS011;4130;48.740;9.132;2022-11-20T05:13:45;2.07;;;1.87;;
8177;SDS011;4130;48.740;9.132;2022-11-20T05:16:14;2.17;;;1.87;;
8177;SDS011;4130;48.740;9.132;2022-11-20T05:18:42;2.93;;;2.03;;
8177;SDS011;4130;48.740;9.132;2022-11-20T05:21:09;3.57;;;1.90;;
8177;SDS011;4130;48.740;9.132;2022-11-20T05:23:37;2.20;;;1.90;;
8177;SDS011;4130;48.740;9.132;2022-11-20T05:26:04;2.40;;;1.93;;
8177;SDS011;4130;48.740;9.132;2022-11-20T05:28:32;2.30;;;1.90;;
8177;SDS011;4130;48.740;9.132;2022-11-20T05:31:03;2.00;;;1.57;;
8177;SDS011;4130;48.740;9.132;2022-11-20T05:33:33;2.00;;;1.63;;
8177;SDS011;4130;48.740;9.132;2022-11-20T05:36:01;1.70;;;1.60;;
8177;SDS011;4130;48.740;9.132;2022-11-20T05:38:28;1.77;;;1.67;;
8177;SDS011;4130;48.740;9.132;2022-11-20T05:40:55;3.23;;;1.90;;
8177;SDS011;4130;48.740;9.132;2022-11-20T05:43:28;1.90;;;1.80;;
8177;SDS011;4130;48.740;9.132;2022-11-20T05:45:58;1.97;;;1.87;;
8177;SDS011;4130;48.740;9.132;2022-11-20T05:48:24;2.20;;;2.00;;
8177;SDS011;4130;48.740;9.132;2022-11-20T05:50:52;2.27;;;2.00;;
8177;SDS011;4130;48.740;9.132;2022-11-20T05:53:19;1.60;;;1.50;;
8177;SDS011;4130;48.740;9.132;2022-11-20T05:55:46;1.70;;;1.60;;
8177;SDS011;4130;48.740;9.132;2022-11-20T05:58:21;1.53;;;1.43;;
8177;SDS011;4130;48.740;9.132;2022-11-20T06:00:48;1.63;;;1.50;;
8177;SDS011;4130;48.740;9.132;2022-11-20T06:03:15;2.10;;;1.90;;
8177;SDS011;4130;48.740;9.132;2022-11-20T06:05:41;1.50;;;1.40;;
8177;SDS011;4130;48.740;9.132;2022-11-20T06:08:09;4.00;;;1.83;;
8177;SDS011;4130;48.740;9.132;2022-11-20T06:10:36;1.70;;;1.60;;
8177;SDS011;4130;48.740;9.132;2022-11-20T06:13:03;1.50;;;1.40;;
8177;SDS011;4130;48.740;9.132;2022-11-20T06:15:30;1.53;;;1.43;;
8177;SDS011;4130;48.740;9.132;2022-11-20T06:17:56;2.47;;;1.50;;
8177;SDS011;4130;48.740;9.132;2022-11-20T06:20:23;1.57;;;1.47;;
8177;SDS011;4130;48.740;9.132;2022-11-20T06:22:50;1.67;;;1.40;;
8177;SDS011;4130;48.740;9.132;2022-11-20T06:25:18;1.70;;;1.57;;
8177;SDS011;4130;48.740;9.132;2022-11-20T06:27:45;1.50;;;1.40;;
8177;SDS011;4130;48.740;9.132;2022-11-20T06:30:12;1.57;;;1.47;;
8177;SDS011;4130;48.740;9.132;2022-11-20T06:32:39;1.43;;;1.37;;
8177;SDS011;4130;48.740;9.132;2022-11-20T06:35:06;1.60;;;1.50;;
8177;SDS011;4130;48.740;9.132;2022-11-20T06:37:34;1.83;;;1.43;;
8177;SDS011;4130;48.740;9.132;2022-11-20T06:40:01;1.57;;;1.47;;
8177;SDS011;4130;48.740;9.132;2022-11-20T06:42:30;1.70;;;1.30;;
8177;SDS011;4130;48.740;9.132;2022-11-20T06:44:58;1.63;;;1.53;;
8177;SDS011;4130;48.740;9.132;2022-11-20T06:47:25;1.30;;;1.30;;
8177;SDS011;4130;48.740;9.132;2022-11-20T06:49:51;1.57;;;1.47;;
8177;SDS011;4130;48.740;9.132;2022-11-20T06:52:18;2.60;;;1.60;;
8177;SDS011;4130;48.740;9.132;2022-11-20T06:54:45;2.03;;;1.63;;
8177;SDS011;4130;48.740;9.132;2022-11-20T06:57:12;1.70;;;1.60;;
8177;SDS011;4130;48.740;9.132;2022-11-20T06:59:40;1.93;;;1.83;;
8177;SDS011;4130;48.740;9.132;2022-11-20T07:02:08;1.87;;;1.70;;
8177;SDS011;4130;48.740;9.132;2022-11-20T07:04:35;1.83;;;1.73;;
8177;SDS011;4130;48.740;9.132;2022-11-20T07:07:02;1.60;;;1.50;;
8177;SDS011;4130;48.740;9.132;2022-11-20T07:09:29;2.43;;;1.70;;
8177;SDS011;4130;48.740;9.132;2022-11-20T07:11:56;1.57;;;1.47;;
8177;SDS011;4130;48.740;9.132;2022-11-20T07:14:22;1.70;;;1.60;;
8177;SDS011;4130;48.740;9.132;2022-11-20T07:16:51;2.00;;;1.80;;
8177;SDS011;4130;48.740;9.132;2022-11-20T07:19:17;1.83;;;1.73;;
8177;SDS011;4130;48.740;9.132;2022-11-20T07:21:44;1.67;;;1.57;;
8177;SDS011;4130;48.740;9.132;2022-11-20T07:24:11;3.57;;;1.60;;
8177;SDS011;4130;48.740;9.132;2022-11-20T07:26:37;2.83;;;1.80;;
8177;SDS011;4130;48.740;9.132;2022-11-20T07:29:04;1.90;;;1.70;;
8177;SDS011;4130;48.740;9.132;2022-11-20T07:31:31;1.67;;;1.57;;
8177;SDS011;4130;48.740;9.132;2022-11-20T07:33:59;2.80;;;1.80;;
8177;SDS011;4130;48.740;9.132;2022-11-20T07:36:26;1.93;;;1.50;;
8177;SDS011;4130;48.740;9.132;2022-11-20T07:38:53;1.40;;;1.30;;
8177;SDS011;4130;48.740;9.132;2022-11-20T07:41:20;1.60;;;1.50;;
8177;SDS011;4130;48.740;9.132;2022-11-20T07:43:46;1.70;;;1.60;;
8177;SDS011;4130;48.740;9.132;2022-11-20T07:46:13;2.07;;;1.30;;
8177;SDS011;4130;48.740;9.132;2022-11-20T07:48:40;2.10;;;1.40;;
8177;SDS011;4130;48.740;9.132;2022-11-20T07:51:08;1.93;;;1.30;;
8177;SDS011;4130;48.740;9.132;2022-11-20T07:53:35;1.27;;;1.17;;
8177;SDS011;4130;48.740;9.132;2022-11-20T07:56:02;1.57;;;1.20;;
8177;SDS011;4130;48.740;9.132;2022-11-20T07:58:29;1.10;;;1.10;;
8177;SDS011;4130;48.740;9.132;2022-11-20T08:00:58;1.40;;;1.30;;
8177;SDS011;4130;48.740;9.132;2022-11-20T08:03:27;1.40;;;1.30;;
8177;SDS011;4130;48.740;9.132;2022-11-20T08:05:54;1.50;;;1.40;;
8177;SDS011;4130;48.740;9.132;2022-11-20T08:08:26;1.50;;;1.40;;
8177;SDS011;4130;48.740;9.132;2022-11-20T08:10:53;1.50;;;1.40;;
8177;SDS011;4130;48.740;9.132;2022-11-20T08:13:40;1.10;;;1.10;;
8177;SDS011;4130;48.740;9.132;2022-11-20T08:16:24;1.67;;;1.33;;
8177;SDS011;4130;48.740;9.132;2022-11-20T08:18:51;1.60;;;1.50;;
8177;SDS011;4130;48.740;9.132;2022-11-20T08:21:19;3.57;;;1.43;;
8177;SDS011;4130;48.740;9.132;2022-11-20T08:23:48;2.20;;;1.50;;
8177;SDS011;4130;48.740;9.132;2022-11-20T08:26:14;1.57;;;1.47;;
8177;SDS011;4130;48.740;9.132;2022-11-20T08:28:41;1.97;;;1.43;;
8177;SDS011;4130;48.740;9.132;2022-11-20T08:31:09;1.97;;;1.43;;
8177;SDS011;4130;48.740;9.132;2022-11-20T08:33:35;2.40;;;1.27;;
8177;SDS011;4130;48.740;9.132;2022-11-20T08:36:03;1.63;;;1.53;;
8177;SDS011;4130;48.740;9.132;2022-11-20T08:38:31;1.80;;;1.20;;
8177;SDS011;4130;48.740;9.132;2022-11-20T08:41:00;1.43;;;1.20;;
8177;SDS011;4130;48.740;9.132;2022-11-20T08:43:46;0.90;;;0.90;;
8177;SDS011;4130;48.740;9.132;2022-11-20T08:48:47;2.13;;;1.43;;
8177;SDS011;4130;48.740;9.132;2022-11-20T08:51:14;3.47;;;1.50;;
8177;SDS011;4130;48.740;9.132;2022-11-20T08:53:41;1.50;;;1.40;;
8177;SDS011;4130;48.740;9.132;2022-11-20T08:56:10;3.23;;;1.77;;
8177;SDS011;4130;48.740;9.132;2022-11-20T08:58:37;2.90;;;1.53;;
8177;SDS011;4130;48.740;9.132;2022-11-20T09:01:04;1.67;;;1.57;;
8177;SDS011;4130;48.740;9.132;2022-11-20T09:03:31;1.20;;;1.13;;
8177;SDS011;4130;48.740;9.132;2022-11-20T09:05:58;1.20;;;1.10;;
8177;SDS011;4130;48.740;9.132;2022-11-20T09:08:26;1.47;;;1.10;;
8177;SDS011;4130;48.740;9.132;2022-11-20T09:10:53;1.30;;;1.07;;
8177;SDS011;4130;48.740;9.132;2022-11-20T09:13:22;1.33;;;1.23;;
8177;SDS011;4130;48.740;9.132;2022-11-20T09:15:52;1.67;;;1.57;;
8177;SDS011;4130;48.740;9.132;2022-11-20T09:18:19;3.13;;;2.00;;
8177;SDS011;4130;48.740;9.132;2022-11-20T09:20:46;1.00;;;1.00;;
8177;SDS011;4130;48.740;9.132;2022-11-20T09:23:13;5.20;;;1.30;;
8177;SDS011;4130;48.740;9.132;2022-11-20T09:25:40;0.93;;;0.93;;
8177;SDS011;4130;48.740;9.132;2022-11-20T09:28:07;1.10;;;1.10;;
8177;SDS011;4130;48.740;9.132;2022-11-20T09:30:37;0.90;;;0.90;;
8177;SDS011;4130;48.740;9.132;2022-11-20T09:33:06;1.30;;;1.20;;
8177;SDS011;4130;48.740;9.132;2022-11-20T09:35:34;1.20;;;1.10;;
8177;SDS011;4130;48.740;9.132;2022-11-20T09:38:04;1.33;;;1.23;;
8177;SDS011;4130;48.740;9.132;2022-11-20T09:40:32;1.33;;;1.10;;
8177;SDS011;4130;48.740;9.132;2022-11-20T09:43:03;1.33;;;1.23;;
8177;SDS011;4130;48.740;9.132;2022-11-20T09:45:44;1.10;;;1.07;;
8177;SDS011;4130;48.740;9.132;2022-11-20T09:51:16;1.20;;;0.93;;
8177;SDS011;4130;48.740;9.132;2022-11-20T09:53:55;0.80;;;0.80;;
8177;SDS011;4130;48.740;9.132;2022-11-20T09:56:29;0.70;;;0.70;;
8177;SDS011;4130;48.740;9.132;2022-11-20T09:58:57;0.90;;;0.90;;
8177;SDS011;4130;48.740;9.132;2022-11-20T10:01:31;0.70;;;0.70;;
8177;SDS011;4130;48.740;9.132;2022-11-20T10:04:02;1.60;;;1.20;;
8177;SDS011;4130;48.740;9.132;2022-11-20T10:06:32;1.40;;;1.30;;
8177;SDS011;4130;48.740;9.132;2022-11-20T10:09:01;1.03;;;1.00;;
8177;SDS011;4130;48.740;9.132;2022-11-20T10:11:38;0.83;;;0.83;;
8177;SDS011;4130;48.740;9.132;2022-11-20T10:14:16;0.70;;;0.70;;
8177;SDS011;4130;48.740;9.132;2022-11-20T10:16:55;0.80;;;0.80;;
8177;SDS011;4130;48.740;9.132;2022-11-20T10:19:35;0.80;;;0.80;;
8177;SDS011;4130;48.740;9.132;2022-11-20T10:22:21;0.63;;;0.63;;
8177;SDS011;4130;48.740;9.132;2022-11-20T10:25:00;0.83;;;0.70;;
8177;SDS011;4130;48.740;9.132;2022-11-20T10:30:28;0.80;;;0.80;;
8177;SDS011;4130;48.740;9.132;2022-11-20T10:32:59;0.70;;;0.70;;
8177;SDS011;4130;48.740;9.132;2022-11-20T10:35:33;0.97;;;0.60;;
8177;SDS011;4130;48.740;9.132;2022-11-20T10:38:02;0.50;;;0.50;;
8177;SDS011;4130;48.740;9.132;2022-11-20T10:40:35;1.13;;;0.80;;
8177;SDS011;4130;48.740;9.132;2022-11-20T10:43:08;0.60;;;0.60;;
8177;SDS011;4130;48.740;9.132;2022-11-20T10:45:43;0.50;;;0.50;;
8177;SDS011;4130;48.740;9.132;2022-11-20T10:48:19;0.87;;;0.87;;
8177;SDS011;4130;48.740;9.132;2022-11-20T10:50:51;0.57;;;0.57;;
8177;SDS011;4130;48.740;9.132;2022-11-20T10:53:31;0.57;;;0.57;;
8177;SDS011;4130;48.740;9.132;2022-11-20T10:56:09;1.60;;;0.77;;
8177;SDS011;4130;48.740;9.132;2022-11-20T10:58:45;2.50;;;1.40;;
8177;SDS011;4130;48.740;9.132;2022-11-20T11:01:20;0.93;;;0.93;;
8177;SDS011;4130;48.740;9.132;2022-11-20T11:03:49;1.20;;;1.00;;
8177;SDS011;4130;48.740;9.132;2022-11-20T11:06:20;1.17;;;0.73;;
8177;SDS011;4130;48.740;9.132;2022-11-20T11:08:53;1.20;;;0.90;;
8177;SDS011;4130;48.740;9.132;2022-11-20T11:11:23;2.10;;;1.00;;
8177;SDS011;4130;48.740;9.132;2022-11-20T11:13:51;0.90;;;0.90;;
8177;SDS011;4130;48.740;9.132;2022-11-20T11:16:22;0.80;;;0.80;;
8177;SDS011;4130;48.740;9.132;2022-11-20T11:18:51;0.73;;;0.73;;
8177;SDS011;4130;48.740;9.132;2022-11-20T11:21:29;0.73;;;0.73;;
8177;SDS011;4130;48.740;9.132;2022-11-20T11:23:57;0.90;;;0.90;;
8177;SDS011;4130;48.740;9.132;2022-11-20T11:26:26;0.93;;;0.90;;
8177;SDS011;4130;48.740;9.132;2022-11-20T11:28:54;1.33;;;1.23;;
8177;SDS011;4130;48.740;9.132;2022-11-20T11:31:22;1.07;;;1.00;;
8177;SDS011;4130;48.740;9.132;2022-11-20T11:33:50;0.70;;;0.70;;
8177;SDS011;4130;48.740;9.132;2022-11-20T11:36:19;0.80;;;0.80;;
8177;SDS011;4130;48.740;9.132;2022-11-20T11:38:50;0.80;;;0.80;;
8177;SDS011;4130;48.740;9.132;2022-11-20T11:41:19;1.10;;;1.00;;
8177;SDS011;4130;48.740;9.132;2022-11-20T11:43:51;1.20;;;1.10;;
8177;SDS011;4130;48.740;9.132;2022-11-20T11:46:36;1.10;;;1.03;;
8177;SDS011;4130;48.740;9.132;2022-11-20T11:49:14;2.57;;;1.33;;
8177;SDS011;4130;48.740;9.132;2022-11-20T11:51:49;3.00;;;1.30;;
8177;SDS011;4130;48.740;9.132;2022-11-20T11:54:29;2.00;;;1.17;;
8177;SDS011;4130;48.740;9.132;2022-11-20T11:57:00;1.73;;;1.23;;
8177;SDS011;4130;48.740;9.132;2022-11-20T11:59:33;1.40;;;1.30;;
8177;SDS011;4130;48.740;9.132;2022-11-20T12:02:12;2.53;;;1.00;;
8177;SDS011;4130;48.740;9.132;2022-11-20T12:04:53;1.10;;;1.00;;
8177;SDS011;4130;48.740;9.132;2022-11-20T12:07:27;0.73;;;0.73;;
8177;SDS011;4130;48.740;9.132;2022-11-20T12:10:02;0.90;;;0.90;;
8177;SDS011;4130;48.740;9.132;2022-11-20T12:12:31;0.80;;;0.80;;
8177;SDS011;4130;48.740;9.132;2022-11-20T12:15:03;1.10;;;1.10;;
8177;SDS011;4130;48.740;9.132;2022-11-20T12:17:36;2.03;;;0.93;;
8177;SDS011;4130;48.740;9.132;2022-11-20T12:20:10;2.37;;;1.03;;
8177;SDS011;4130;48.740;9.132;2022-11-20T12:22:40;1.00;;;0.77;;
8177;SDS011;4130;48.740;9.132;2022-11-20T12:25:16;1.73;;;0.80;;
8177;SDS011;4130;48.740;9.132;2022-11-20T12:27:52;1.87;;;1.00;;
8177;SDS011;4130;48.740;9.132;2022-11-20T12:30:32;0.90;;;0.80;;
8177;SDS011;4130;48.740;9.132;2022-11-20T12:33:08;1.00;;;1.00;;
8177;SDS011;4130;48.740;9.132;2022-11-20T12:35:50;5.43;;;1.07;;
8177;SDS011;4130;48.740;9.132;2022-11-20T12:38:39;0.80;;;0.60;;
8177;SDS011;4130;48.740;9.132;2022-11-20T12:41:15;1.03;;;0.70;;
8177;SDS011;4130;48.740;9.132;2022-11-20T12:44:13;1.23;;;0.90;;
8177;SDS011;4130;48.740;9.132;2022-11-20T12:47:11;1.20;;;0.80;;
8177;SDS011;4130;48.740;9.132;2022-11-20T12:49:45;2.90;;;1.40;;
8177;SDS011;4130;48.740;9.132;2022-11-20T12:52:25;0.80;;;0.70;;
8177;SDS011;4130;48.740;9.132;2022-11-20T12:55:08;1.03;;;0.90;;
8177;SDS011;4130;48.740;9.132;2022-11-20T12:57:43;1.83;;;0.97;;
8177;SDS011;4130;48.740;9.132;2022-11-20T13:00:16;1.13;;;0.60;;
8177;SDS011;4130;48.740;9.132;2022-11-20T13:02:58;1.17;;;0.80;;
8177;SDS011;4130;48.740;9.132;2022-11-20T13:05:37;1.00;;;0.87;;
8177;SDS011;4130;48.740;9.132;2022-11-20T13:08:17;2.93;;;0.97;;
8177;SDS011;4130;48.740;9.132;2022-11-20T13:10:49;1.83;;;0.83;;
8177;SDS011;4130;48.740;9.132;2022-11-20T13:13:23;0.90;;;0.87;;
8177;SDS011;4130;48.740;9.132;2022-11-20T13:15:57;1.83;;;0.80;;
8177;SDS011;4130;48.740;9.132;2022-11-20T13:18:29;0.40;;;0.40;;
8177;SDS011;4130;48.740;9.132;2022-11-20T13:21:12;2.00;;;0.70;;
8177;SDS011;4130;48.740;9.132;2022-11-20T13:23:41;0.80;;;0.80;;
8177;SDS011;4130;48.740;9.132;2022-11-20T13:26:14;0.60;;;0.60;;
8177;SDS011;4130;48.740;9.132;2022-11-20T13:28:43;0.73;;;0.60;;
8177;SDS011;4130;48.740;9.132;2022-11-20T13:31:23;1.03;;;0.70;;
8177;SDS011;4130;48.740;9.132;2022-11-20T13:33:56;0.83;;;0.60;;
8177;SDS011;4130;48.740;9.132;2022-11-20T13:36:25;1.23;;;0.73;;
8177;SDS011;4130;48.740;9.132;2022-11-20T13:38:55;1.40;;;0.73;;
8177;SDS011;4130;48.740;9.132;2022-11-20T13:41:23;1.00;;;0.70;;
8177;SDS011;4130;48.740;9.132;2022-11-20T13:43:57;0.60;;;0.60;;
8177;SDS011;4130;48.740;9.132;2022-11-20T13:46:34;4.67;;;0.80;;
8177;SDS011;4130;48.740;9.132;2022-11-20T13:49:06;1.43;;;0.80;;
8177;SDS011;4130;48.740;9.132;2022-11-20T13:51:37;1.33;;;1.00;;
8177;SDS011;4130;48.740;9.132;2022-11-20T13:54:31;1.73;;;0.50;;
8177;SDS011;4130;48.740;9.132;2022-11-20T13:57:22;0.80;;;0.80;;
8177;SDS011;4130;48.740;9.132;2022-11-20T14:00:11;1.13;;;0.80;;
8177;SDS011;4130;48.740;9.132;2022-11-20T14:02:39;0.87;;;0.80;;
8177;SDS011;4130;48.740;9.132;2022-11-20T14:05:11;1.10;;;1.07;;
8177;SDS011;4130;48.740;9.132;2022-11-20T14:07:43;0.90;;;0.90;;
8177;SDS011;4130;48.740;9.132;2022-11-20T14:10:20;2.23;;;1.03;;
8177;SDS011;4130;48.740;9.132;2022-11-20T14:12:48;1.57;;;1.10;;
8177;SDS011;4130;48.740;9.132;2022-11-20T14:15:23;0.97;;;0.73;;
8177;SDS011;4130;48.740;9.132;2022-11-20T14:17:52;1.63;;;1.23;;
8177;SDS011;4130;48.740;9.132;2022-11-20T14:20:19;2.00;;;1.00;;
8177;SDS011;4130;48.740;9.132;2022-11-20T14:22:51;1.83;;;1.00;;
8177;SDS011;4130;48.740;9.132;2022-11-20T14:25:21;2.10;;;1.10;;
8177;SDS011;4130;48.740;9.132;2022-11-20T14:27:52;0.63;;;0.63;;
8177;SDS011;4130;48.740;9.132;2022-11-20T14:30:22;1.80;;;1.30;;
8177;SDS011;4130;48.740;9.132;2022-11-20T14:32:50;1.97;;;1.00;;
8177;SDS011;4130;48.740;9.132;2022-11-20T14:35:21;0.60;;;0.60;;
8177;SDS011;4130;48.740;9.132;2022-11-20T14:37:51;1.83;;;0.90;;
8177;SDS011;4130;48.740;9.132;2022-11-20T14:40:25;0.80;;;0.80;;
8177;SDS011;4130;48.740;9.132;2022-11-20T14:42:54;1.80;;;0.70;;
8177;SDS011;4130;48.740;9.132;2022-11-20T14:45:21;1.40;;;0.80;;
8177;SDS011;4130;48.740;9.132;2022-11-20T14:47:48;1.70;;;0.97;;
8177;SDS011;4130;48.740;9.132;2022-11-20T14:50:18;2.03;;;1.00;;
8177;SDS011;4130;48.740;9.132;2022-11-20T14:55:29;2.50;;;1.17;;
8177;SDS011;4130;48.740;9.132;2022-11-20T14:57:59;1.43;;;1.00;;
8177;SDS011;4130;48.740;9.132;2022-11-20T15:00:27;1.47;;;1.30;;
8177;SDS011;4130;48.740;9.132;2022-11-20T15:02:56;2.27;;;1.30;;
8177;SDS011;4130;48.740;9.132;2022-11-20T15:05:26;2.30;;;1.27;;
8177;SDS011;4130;48.740;9.132;2022-11-20T15:08:11;2.33;;;1.37;;
8177;SDS011;4130;48.740;9.132;2022-11-20T15:10:46;1.73;;;1.00;;
8177;SDS011;4130;48.740;9.132;2022-11-20T15:13:15;1.67;;;1.30;;
8177;SDS011;4130;48.740;9.132;2022-11-20T15:15:47;1.20;;;1.10;;
8177;SDS011;4130;48.740;9.132;2022-11-20T15:18:17;1.87;;;1.20;;
8177;SDS011;4130;48.740;9.132;2022-11-20T15:20:45;1.43;;;1.00;;
8177;SDS011;4130;48.740;9.132;2022-11-20T15:23:13;1.07;;;1.07;;
8177;SDS011;4130;48.740;9.132;2022-11-20T15:25:42;1.13;;;0.80;;
8177;SDS011;4130;48.740;9.132;2022-11-20T15:28:13;1.70;;;1.00;;
8177;SDS011;4130;48.740;9.132;2022-11-20T15:30:44;14.90;;;2.20;;
8177;SDS011;4130;48.740;9.132;2022-11-20T15:33:12;0.97;;;0.97;;
8177;SDS011;4130;48.740;9.132;2022-11-20T15:35:40;3.10;;;1.40;;
8177;SDS011;4130;48.740;9.132;2022-11-20T15:38:07;2.50;;;1.67;;
8177;SDS011;4130;48.740;9.132;2022-11-20T15:40:33;1.63;;;1.10;;
8177;SDS011;4130;48.740;9.132;2022-11-20T15:43:00;3.93;;;1.60;;